Racecast

D.J. Jones

Phenom Elite (CA) · 9-10 · Compare head to head

Athlete rating
Races 43
Seasons 3 2013 — 2015
Speed rating — all races

Track & Field

TF speed rating

2015 TF

Phenom Elite (CA) · Grade 9-10

Date Meet Event Result Place Rating Difficulty PR/SR Flags
2015-05-16 3M Track Club Track and Field Invitation 400m 1:09.11 4th · 1st on team -0.028 ★PR SR
2015-05-16 3M Track Club Track and Field Invitation 100m 14.7 10th · 3rd on team -0.028
2015-05-16 3M Track Club Track and Field Invitation 100m 14.02 3rd · 1st on team -0.028
2015-05-16 3M Track Club Track and Field Invitation 200m 29.77 3rd · 1st on team -0.028
2015-04-25 Revolution Express Track Club 200m 29.19 2nd · 2nd on team -0.024 SR
2015-04-25 Revolution Express Track Club 400m 1:09.92 4th · 2nd on team -0.024 PR SR
2015-04-25 Revolution Express Track Club 100m 14.01 3rd · 2nd on team -0.024
2015-04-18 CA Track Club 100m 13.97 1st · 1st on team -0.038
2015-04-18 CA Track Club 200m 29.98 3rd · 2nd on team -0.038
2015-03-28 Contra Costa Cheetahs 200m 29.47 2nd · 2nd on team -0.017 SR
2015-03-28 Contra Costa Cheetahs 100m 13.86 3rd · 2nd on team -0.017 ★PR SR
2015-03-21 RPM Legacy 100m 14.42 2nd · 1st on team -0.020 SR

2014 TF

Phenom Elite (CA) · Grade 9-10

Date Meet Event Result Place Rating Difficulty PR/SR Flags
2014-05-24 Central Valley Roadrunners 200m 29.85 5th · 3rd on team -0.026 PR SR
2014-05-24 Central Valley Roadrunners 100m 14.36 8th · 4th on team -0.026 PR SR
2014-05-24 Central Valley Roadrunners 100m 14.28 7th · 3rd on team -0.026 PR SR
2014-05-24 Central Valley Roadrunners 200m 29.11 4th · 2nd on team -0.026 ★PR SR
2014-04-26 Revolution Express TC 200m 30.44 3rd · 2nd on team -0.024 PR SR
2014-04-26 Revolution Express TC 400m 1:12.43 3rd · 2nd on team -0.024 PR SR
2014-04-26 Revolution Express TC 100m 14.72 2nd · 2nd on team -0.024
2014-04-05 Sacramento Speed Showcase 100m 14.76 13th · 3rd on team -0.033
2014-04-05 Sacramento Speed Showcase 400m 1:14.08 6th · 3rd on team -0.033 PR SR
2014-04-05 Sacramento Speed Showcase 200m 31.26 6th · 2nd on team -0.033 SR
2014-03-29 East County Cheetahs TC 100m 15.12 5th · 3rd on team -0.017
2014-03-22 RPM 100m 14.64 1st · 1st on team -0.012 PR SR

2013 TF

Phenom Elite (CA) · Grade 7-8

Date Meet Event Result Place Rating Difficulty PR/SR Flags
2013-06-01 100 Black Men Tommie Smith 100m 15.62 3rd · 2nd on team -0.036
2013-06-01 100 Black Men Tommie Smith 200m 31.66 1st · 1st on team -0.036
2013-06-01 100 Black Men Tommie Smith 100m 15.28 1st · 1st on team -0.036
2013-05-25 Central Valley Roadrunners (2-day meet) 100m 15.13 1st · 1st on team -0.026
2013-05-25 Central Valley Roadrunners (2-day meet) 200m 31.23 4th · 3rd on team -0.026 PR SR
2013-05-25 Central Valley Roadrunners (2-day meet) 100m 15.6 3rd · 2nd on team -0.026
2013-05-25 Central Valley Roadrunners (2-day meet) 200m 31.2 3rd · 2nd on team -0.026 PR SR
2013-05-18 3M Track Club 100m 15.24 2nd · 2nd on team -0.028
2013-05-18 3M Track Club 200m 31.85 2nd · 2nd on team -0.028 PR SR
2013-05-18 3M Track Club 100m 15.22 1st · 1st on team -0.028
2013-05-04 Hercules / Running Rebels (2-day) 100m 15.12 1st · 1st on team -0.038 PR SR
2013-05-04 Hercules / Running Rebels (2-day) 200m 32.2 2nd · 2nd on team -0.038 PR SR
2013-05-04 Hercules / Running Rebels (2-day) 100m 15.18 2nd · 2nd on team -0.038
2013-04-27 Revolution Express Track Club 100m 15.37 1st · 1st on team -0.024 PR SR
2013-04-27 Revolution Express Track Club 200m 34.09 3rd · 2nd on team -0.024
2013-04-13 CA Track Club 100m 16.04 1st · 1st on team -0.038
2013-04-13 CA Track Club 200m 33.63 1st · 1st on team -0.038
2013-04-06 Sacramento Speed Showcase 200m 33.47 3rd · 2nd on team -0.031 PR SR
2013-04-06 Sacramento Speed Showcase 100m 15.72 1st · 1st on team -0.031 PR SR